createdAt,value
2023-05-08T00:02:09.687Z,17.00
2023-05-08T00:04:37.472Z,17.00
2023-05-08T00:07:05.252Z,17.10
2023-05-08T00:09:32.920Z,17.10
2023-05-08T00:12:00.664Z,17.10
2023-05-08T00:14:28.450Z,17.10
2023-05-08T00:16:56.256Z,17.10
2023-05-08T00:19:25.648Z,17.10
2023-05-08T00:21:53.501Z,17.10
2023-05-08T00:24:21.266Z,17.10
2023-05-08T00:26:48.980Z,17.10
2023-05-08T00:29:16.898Z,17.10
2023-05-08T00:31:44.754Z,17.10
2023-05-08T00:34:12.715Z,17.10
2023-05-08T00:36:41.812Z,17.10
2023-05-08T00:39:09.537Z,17.10
2023-05-08T00:41:38.067Z,17.00
2023-05-08T00:44:05.932Z,17.00
2023-05-08T00:49:19.898Z,17.00
2023-05-08T00:51:50.775Z,16.90
2023-05-08T00:54:18.518Z,16.90
2023-05-08T00:56:46.388Z,16.90
2023-05-08T00:59:14.949Z,16.90
2023-05-08T01:01:43.202Z,16.90
2023-05-08T01:04:11.086Z,16.90
2023-05-08T01:06:39.021Z,16.80
2023-05-08T01:09:08.141Z,16.80
2023-05-08T01:11:38.965Z,16.80
2023-05-08T01:14:12.181Z,16.80
2023-05-08T01:16:42.764Z,16.80
2023-05-08T01:19:21.599Z,16.80
2023-05-08T01:21:53.949Z,16.80
2023-05-08T01:24:37.871Z,16.80
2023-05-08T01:27:12.658Z,16.80
2023-05-08T01:30:02.655Z,16.80
2023-05-08T01:32:33.147Z,16.80
2023-05-08T01:35:04.897Z,16.80
2023-05-08T01:37:36.635Z,16.80
2023-05-08T01:40:09.127Z,16.80
2023-05-08T01:42:44.452Z,16.80
2023-05-08T01:45:14.830Z,16.90
2023-05-08T01:47:46.000Z,16.90
2023-05-08T01:50:17.414Z,16.90
2023-05-08T01:52:47.054Z,16.80
2023-05-08T01:55:19.066Z,16.80
2023-05-08T01:57:48.163Z,16.80
2023-05-08T02:00:16.757Z,16.80
2023-05-08T02:02:46.065Z,16.80
2023-05-08T02:05:14.534Z,16.80
2023-05-08T02:07:42.282Z,16.80
2023-05-08T02:10:11.294Z,16.80
2023-05-08T02:12:39.963Z,16.80
2023-05-08T02:15:09.053Z,16.80
2023-05-08T02:17:38.893Z,16.80
2023-05-08T02:20:08.750Z,16.80
2023-05-08T02:22:37.436Z,16.80
2023-05-08T02:25:05.500Z,16.70
2023-05-08T02:27:33.886Z,16.70
2023-05-08T02:30:01.908Z,16.70
2023-05-08T02:32:31.042Z,16.70
2023-05-08T02:35:03.624Z,16.70
2023-05-08T02:37:34.199Z,16.70
2023-05-08T02:40:02.979Z,16.70
2023-05-08T02:42:31.341Z,16.70
2023-05-08T02:44:59.062Z,16.70
2023-05-08T02:47:28.657Z,16.70
2023-05-08T02:50:01.262Z,16.70
2023-05-08T02:52:30.400Z,16.70
2023-05-08T02:55:00.976Z,16.70
2023-05-08T02:57:34.459Z,16.60
2023-05-08T03:00:04.657Z,16.60
2023-05-08T03:02:34.569Z,16.70
2023-05-08T03:05:04.673Z,16.70
2023-05-08T03:07:33.847Z,16.70
2023-05-08T03:10:04.744Z,16.60
2023-05-08T03:12:33.807Z,16.60
2023-05-08T03:15:05.272Z,16.60
2023-05-08T03:17:34.291Z,16.60
2023-05-08T03:20:05.175Z,16.60
2023-05-08T03:22:35.729Z,16.60
2023-05-08T03:25:06.036Z,16.60
2023-05-08T03:27:34.083Z,16.60
2023-05-08T03:30:02.869Z,16.60
2023-05-08T03:32:31.065Z,16.60
2023-05-08T03:34:59.882Z,16.60
2023-05-08T03:37:28.068Z,16.60
2023-05-08T03:39:56.253Z,16.60
2023-05-08T03:42:26.354Z,16.60
2023-05-08T03:44:54.593Z,16.60
2023-05-08T03:47:22.868Z,16.60
2023-05-08T03:49:51.087Z,16.60
2023-05-08T03:52:18.870Z,16.60
2023-05-08T03:54:46.732Z,16.50
2023-05-08T03:57:14.461Z,16.50
2023-05-08T03:59:48.322Z,16.50
2023-05-08T04:02:20.810Z,16.50
2023-05-08T04:04:51.421Z,16.50
2023-05-08T04:07:22.959Z,16.60
2023-05-08T04:09:55.587Z,16.50
2023-05-08T04:12:27.607Z,16.50
2023-05-08T04:15:01.202Z,16.50
2023-05-08T04:17:30.981Z,16.50
2023-05-08T04:20:01.810Z,16.50
2023-05-08T04:22:30.569Z,16.50
2023-05-08T04:24:59.812Z,16.40
2023-05-08T04:27:27.791Z,16.50
2023-05-08T04:29:57.304Z,16.50
2023-05-08T04:32:25.366Z,16.40
2023-05-08T04:34:53.399Z,16.40
2023-05-08T04:37:25.641Z,16.40
2023-05-08T04:39:53.807Z,16.40
2023-05-08T04:42:21.723Z,16.40
2023-05-08T04:44:49.412Z,16.40
2023-05-08T04:47:18.802Z,16.40
2023-05-08T04:49:46.863Z,16.40
2023-05-08T04:52:14.573Z,16.40
2023-05-08T04:54:43.384Z,16.40
2023-05-08T04:57:11.125Z,16.40
2023-05-08T04:59:38.889Z,16.40
2023-05-08T05:02:08.347Z,16.40
2023-05-08T05:04:37.824Z,16.40
2023-05-08T05:07:05.611Z,16.40
2023-05-08T05:09:36.821Z,16.40
2023-05-08T05:12:04.626Z,16.40
2023-05-08T05:14:32.558Z,16.40
2023-05-08T05:17:00.451Z,16.40
2023-05-08T05:19:28.201Z,16.50
2023-05-08T05:21:57.380Z,16.50
2023-05-08T05:24:25.351Z,16.50
2023-05-08T05:26:53.079Z,16.50
2023-05-08T05:29:20.786Z,16.50
2023-05-08T05:31:48.546Z,16.50
2023-05-08T05:34:16.249Z,16.50
2023-05-08T05:36:44.062Z,16.50
2023-05-08T05:39:13.253Z,16.50
2023-05-08T05:41:44.142Z,16.60
2023-05-08T05:44:11.915Z,16.60
2023-05-08T05:46:41.008Z,16.60
2023-05-08T05:49:11.862Z,16.60
2023-05-08T05:51:39.575Z,16.70
2023-05-08T05:54:07.327Z,16.70
2023-05-08T05:56:36.420Z,16.70
2023-05-08T05:59:04.301Z,16.70
2023-05-08T06:01:32.041Z,16.70
2023-05-08T06:04:00.053Z,16.70
2023-05-08T06:06:27.938Z,16.70
2023-05-08T06:08:55.632Z,16.80
2023-05-08T06:11:23.533Z,16.70
2023-05-08T06:13:52.571Z,16.80
2023-05-08T06:16:23.164Z,16.80
2023-05-08T06:18:50.991Z,16.80
2023-05-08T06:21:18.741Z,16.80
2023-05-08T06:23:46.676Z,16.80
2023-05-08T06:26:14.524Z,16.80
2023-05-08T06:28:42.243Z,16.80
2023-05-08T06:31:11.382Z,16.80
2023-05-08T06:33:39.177Z,16.80
2023-05-08T06:36:07.384Z,16.90
2023-05-08T06:38:35.109Z,16.90
2023-05-08T06:41:02.861Z,16.90
2023-05-08T06:43:31.042Z,17.00
2023-05-08T06:45:58.863Z,17.00
2023-05-08T06:48:29.072Z,17.00
2023-05-08T06:50:56.882Z,17.00
2023-05-08T06:53:24.581Z,17.00
2023-05-08T06:55:52.708Z,17.00
2023-05-08T06:58:20.402Z,17.00
2023-05-08T07:00:48.106Z,17.00
2023-05-08T07:03:16.214Z,17.00
2023-05-08T07:05:45.298Z,17.00
2023-05-08T07:08:13.060Z,17.00
2023-05-08T07:10:40.964Z,17.00
2023-05-08T07:13:08.755Z,17.00
2023-05-08T07:15:36.548Z,17.00
2023-05-08T07:18:04.414Z,17.00
2023-05-08T07:20:32.151Z,17.00
2023-05-08T07:23:01.276Z,17.00
2023-05-08T07:25:29.232Z,17.10
2023-05-08T07:27:58.703Z,17.10
2023-05-08T07:30:28.272Z,17.10
2023-05-08T07:32:56.073Z,17.10
2023-05-08T07:35:23.970Z,17.20
2023-05-08T07:37:51.788Z,17.20
2023-05-08T07:40:20.828Z,17.20
2023-05-08T07:42:48.543Z,17.20
2023-05-08T07:45:16.486Z,17.20
2023-05-08T07:47:51.496Z,17.30
2023-05-08T07:50:19.417Z,17.30
2023-05-08T07:52:49.223Z,17.30
2023-05-08T07:55:18.032Z,17.40
2023-05-08T07:57:47.242Z,17.40
2023-05-08T08:00:15.882Z,17.40
2023-05-08T08:02:43.746Z,17.40
2023-05-08T08:05:12.097Z,17.40
2023-05-08T08:07:40.194Z,17.50
2023-05-08T08:10:09.016Z,17.50
2023-05-08T08:12:36.927Z,17.50
2023-05-08T08:15:06.704Z,17.60
2023-05-08T08:17:34.520Z,17.60
2023-05-08T08:20:02.550Z,17.60
2023-05-08T08:22:30.348Z,17.60
2023-05-08T08:24:58.085Z,17.70
2023-05-08T08:27:25.862Z,17.80
2023-05-08T08:30:04.425Z,17.80
2023-05-08T08:32:41.916Z,17.80
2023-05-08T08:35:10.477Z,17.90
2023-05-08T08:37:38.302Z,17.90
2023-05-08T08:40:06.585Z,17.90
2023-05-08T08:42:34.499Z,18.00
2023-05-08T08:45:02.315Z,18.00
2023-05-08T08:47:30.776Z,18.00
2023-05-08T08:50:02.117Z,18.10
2023-05-08T08:52:32.765Z,18.10
2023-05-08T08:55:01.416Z,18.20
2023-05-08T08:57:33.048Z,18.20
2023-05-08T09:00:04.212Z,18.10
2023-05-08T09:02:32.248Z,18.10
2023-05-08T09:05:01.858Z,18.10
2023-05-08T09:07:30.474Z,18.10
2023-05-08T09:09:58.569Z,18.10
2023-05-08T09:12:26.267Z,18.10
2023-05-08T09:14:53.993Z,18.10
2023-05-08T09:17:22.564Z,18.10
2023-05-08T09:19:50.534Z,18.10
2023-05-08T09:22:19.819Z,18.10
2023-05-08T09:24:57.334Z,18.10
2023-05-08T09:27:25.580Z,18.10
2023-05-08T09:30:00.066Z,18.10
2023-05-08T09:32:28.374Z,18.20
2023-05-08T09:34:56.576Z,18.30
2023-05-08T09:37:26.114Z,18.40
2023-05-08T09:39:53.869Z,18.50
2023-05-08T09:42:23.478Z,18.60
2023-05-08T09:44:52.127Z,18.70
2023-05-08T09:47:21.758Z,18.80
2023-05-08T09:49:59.315Z,18.80
2023-05-08T09:52:28.787Z,18.90
2023-05-08T09:55:01.844Z,18.90
2023-05-08T09:57:29.981Z,18.90
2023-05-08T10:00:06.081Z,18.90
2023-05-08T10:02:33.918Z,18.90
2023-05-08T10:05:01.957Z,18.80
2023-05-08T10:07:31.840Z,18.90
2023-05-08T10:10:00.905Z,18.90
2023-05-08T10:12:29.076Z,18.90
2023-05-08T10:14:56.890Z,18.90
2023-05-08T10:17:27.478Z,18.90
2023-05-08T10:20:01.049Z,18.90
2023-05-08T10:22:29.062Z,18.90
2023-05-08T10:24:59.032Z,18.90
2023-05-08T10:27:31.956Z,18.90
2023-05-08T10:30:01.992Z,18.90
2023-05-08T10:32:31.893Z,18.90
2023-05-08T10:35:00.327Z,18.90
2023-05-08T10:37:30.003Z,18.90
2023-05-08T10:39:59.530Z,18.90
2023-05-08T10:42:27.318Z,18.90
2023-05-08T10:44:55.460Z,18.90
2023-05-08T10:47:26.334Z,18.90
2023-05-08T10:49:59.070Z,18.90
2023-05-08T10:52:33.007Z,18.90
2023-05-08T10:55:17.059Z,18.90
2023-05-08T10:58:00.014Z,18.90
2023-05-08T11:00:32.395Z,18.90
2023-05-08T11:03:07.209Z,18.90
2023-05-08T11:05:46.380Z,18.90
2023-05-08T11:08:16.054Z,18.90
2023-05-08T11:10:46.252Z,18.90
2023-05-08T11:13:14.213Z,18.90
2023-05-08T11:15:42.457Z,19.00
2023-05-08T11:18:11.447Z,19.00
2023-05-08T11:20:39.861Z,19.00
2023-05-08T11:23:22.563Z,19.10
2023-05-08T11:25:59.998Z,19.10
2023-05-08T11:28:28.337Z,19.20
2023-05-08T11:30:56.946Z,19.10
2023-05-08T11:33:24.800Z,19.10
2023-05-08T11:35:53.840Z,19.10
2023-05-08T11:38:23.059Z,19.10
2023-05-08T11:40:56.380Z,19.00
2023-05-08T11:43:42.366Z,19.00
2023-05-08T11:46:16.727Z,18.90
2023-05-08T11:48:44.867Z,18.80
2023-05-08T11:51:13.545Z,18.80
2023-05-08T11:53:41.451Z,18.80
2023-05-08T11:56:10.568Z,18.80
2023-05-08T11:58:38.273Z,18.80
2023-05-08T12:01:06.182Z,18.80
2023-05-08T12:03:33.999Z,18.70
2023-05-08T12:06:01.854Z,18.70
2023-05-08T12:08:29.605Z,18.70
2023-05-08T12:10:58.035Z,18.60
2023-05-08T12:13:28.277Z,18.60
2023-05-08T12:15:57.068Z,18.60
2023-05-08T12:18:26.157Z,18.60
2023-05-08T12:20:54.448Z,18.60
2023-05-08T12:23:22.251Z,18.60
2023-05-08T12:25:55.215Z,18.60
2023-05-08T12:28:23.487Z,18.60
2023-05-08T12:30:52.701Z,18.60
2023-05-08T12:33:21.213Z,18.70
2023-05-08T12:35:49.039Z,18.70
2023-05-08T12:38:16.903Z,18.70
2023-05-08T12:40:45.454Z,18.80
2023-05-08T12:43:13.347Z,18.90
2023-05-08T12:45:41.966Z,19.00
2023-05-08T12:48:11.984Z,19.10
2023-05-08T12:50:40.313Z,19.20
2023-05-08T12:53:09.296Z,19.30
2023-05-08T12:55:37.975Z,19.40
2023-05-08T12:58:06.710Z,19.40
2023-05-08T13:00:38.246Z,19.50
2023-05-08T13:03:06.588Z,19.50
2023-05-08T13:05:36.287Z,19.60
2023-05-08T13:08:04.714Z,19.70
2023-05-08T13:10:46.098Z,19.70
2023-05-08T13:13:14.027Z,19.80
2023-05-08T13:15:41.873Z,19.80
2023-05-08T13:18:09.859Z,19.80
2023-05-08T13:20:39.372Z,19.70
2023-05-08T13:23:07.230Z,19.70
2023-05-08T13:25:36.390Z,19.60
2023-05-08T13:28:04.633Z,19.60
2023-05-08T13:30:32.462Z,19.60
2023-05-08T13:33:00.544Z,19.70
2023-05-08T13:35:28.560Z,19.80
2023-05-08T13:37:57.868Z,20.00
2023-05-08T13:40:25.906Z,20.00
2023-05-08T13:42:54.197Z,20.10
2023-05-08T13:45:22.051Z,20.10
2023-05-08T13:47:50.638Z,20.20
2023-05-08T13:50:19.462Z,20.20
2023-05-08T13:52:47.201Z,20.20
2023-05-08T13:55:16.728Z,20.10
2023-05-08T13:57:44.869Z,20.10
2023-05-08T14:00:13.160Z,20.10
2023-05-08T14:02:40.995Z,20.10
2023-05-08T14:05:09.328Z,20.10
2023-05-08T14:07:37.102Z,20.20
2023-05-08T14:10:05.061Z,20.30
2023-05-08T14:12:36.163Z,20.40
2023-05-08T14:15:04.930Z,20.40
2023-05-08T14:17:32.870Z,20.50
2023-05-08T14:20:00.714Z,20.60
2023-05-08T14:22:28.528Z,20.50
2023-05-08T14:24:56.292Z,20.50
2023-05-08T14:27:24.056Z,20.50
2023-05-08T14:29:54.132Z,20.40
2023-05-08T14:32:21.892Z,20.40
2023-05-08T14:34:49.647Z,20.20
2023-05-08T14:37:17.728Z,20.20
2023-05-08T14:39:45.579Z,20.20
2023-05-08T14:42:22.929Z,20.10
2023-05-08T14:44:53.173Z,20.10
2023-05-08T14:47:20.960Z,20.10
2023-05-08T14:49:48.683Z,20.00
2023-05-08T14:52:16.419Z,20.00
2023-05-08T14:54:44.514Z,20.00
2023-05-08T14:57:12.402Z,19.90
2023-05-08T14:59:49.054Z,19.80
2023-05-08T15:02:23.750Z,19.80
2023-05-08T15:04:51.765Z,19.70
2023-05-08T15:07:19.568Z,19.70
2023-05-08T15:09:50.739Z,19.60
2023-05-08T15:12:18.487Z,19.60
2023-05-08T15:14:46.368Z,19.60
2023-05-08T15:17:14.182Z,19.50
2023-05-08T15:19:43.454Z,19.50
2023-05-08T15:22:11.220Z,19.50
2023-05-08T15:24:39.228Z,19.50
2023-05-08T15:27:07.093Z,19.40
2023-05-08T15:29:34.989Z,19.40
2023-05-08T15:32:02.927Z,19.50
2023-05-08T15:34:32.878Z,19.40
2023-05-08T15:37:02.275Z,19.50
2023-05-08T15:39:30.092Z,19.50
2023-05-08T15:41:57.896Z,19.50
2023-05-08T15:44:28.802Z,19.50
2023-05-08T15:47:02.071Z,19.50
2023-05-08T15:49:29.929Z,19.50
2023-05-08T15:51:57.673Z,19.40
2023-05-08T15:54:26.862Z,19.50
2023-05-08T15:56:54.601Z,19.50
2023-05-08T15:59:22.370Z,19.40
2023-05-08T16:01:51.532Z,19.40
2023-05-08T16:04:20.073Z,19.40
2023-05-08T16:06:47.800Z,19.40
2023-05-08T16:09:15.482Z,19.30
2023-05-08T16:11:44.533Z,19.30
2023-05-08T16:14:12.353Z,19.30
2023-05-08T16:16:40.127Z,19.30
2023-05-08T16:19:07.821Z,19.30
2023-05-08T16:21:36.069Z,19.30
2023-05-08T16:24:03.858Z,19.30
2023-05-08T16:26:31.622Z,19.30
2023-05-08T16:29:00.689Z,19.30
2023-05-08T16:31:28.435Z,19.30
2023-05-08T16:33:56.168Z,19.30
2023-05-08T16:36:23.891Z,19.30
2023-05-08T16:38:51.631Z,19.30
2023-05-08T16:41:19.430Z,19.20
2023-05-08T16:43:47.238Z,19.10
2023-05-08T16:46:17.489Z,19.10
2023-05-08T16:48:49.312Z,19.00
2023-05-08T16:51:17.058Z,19.00
2023-05-08T16:53:44.725Z,19.00
2023-05-08T16:56:12.526Z,19.00
2023-05-08T16:58:40.256Z,18.90
2023-05-08T17:01:08.081Z,18.90
2023-05-08T17:03:37.315Z,18.90
2023-05-08T17:06:06.903Z,18.90
2023-05-08T17:08:34.697Z,18.90
2023-05-08T17:11:02.504Z,18.80
2023-05-08T17:13:30.306Z,18.80
2023-05-08T17:15:58.663Z,18.70
2023-05-08T17:18:26.434Z,18.70
2023-05-08T17:20:55.705Z,18.70
2023-05-08T17:23:23.528Z,18.60
2023-05-08T17:25:57.002Z,18.60
2023-05-08T17:28:24.818Z,18.60
2023-05-08T17:30:52.744Z,18.50
2023-05-08T17:33:21.092Z,18.50
2023-05-08T17:35:48.939Z,18.50
2023-05-08T17:38:18.073Z,18.40
2023-05-08T17:40:46.147Z,18.40
2023-05-08T17:43:14.317Z,18.40
2023-05-08T17:45:42.064Z,18.40
2023-05-08T17:48:09.985Z,18.30
2023-05-08T17:50:39.460Z,18.30
2023-05-08T17:53:07.364Z,18.30
2023-05-08T17:55:37.083Z,18.30
2023-05-08T17:58:04.996Z,18.30
2023-05-08T18:00:32.832Z,18.20
2023-05-08T18:03:00.706Z,18.20
2023-05-08T18:05:28.546Z,18.20
2023-05-08T18:07:56.389Z,18.20
2023-05-08T18:10:24.333Z,18.20
2023-05-08T18:12:53.507Z,18.20
2023-05-08T18:15:21.285Z,18.10
2023-05-08T18:17:49.063Z,18.20
2023-05-08T18:20:16.763Z,18.20
2023-05-08T18:22:45.062Z,18.10
2023-05-08T18:25:12.821Z,18.10
2023-05-08T18:27:41.167Z,18.10
2023-05-08T18:30:10.968Z,18.10
2023-05-08T18:32:38.788Z,18.10
2023-05-08T18:35:07.037Z,18.10
2023-05-08T18:37:34.811Z,18.10
2023-05-08T18:40:02.632Z,18.10
2023-05-08T18:42:30.407Z,18.10
2023-05-08T18:45:00.228Z,18.00
2023-05-08T18:47:29.440Z,18.00
2023-05-08T18:49:59.786Z,18.00
2023-05-08T18:52:27.528Z,17.90
2023-05-08T18:54:55.344Z,17.90
2023-05-08T18:57:23.077Z,17.80
2023-05-08T18:59:50.894Z,17.80
2023-05-08T19:02:18.598Z,17.70
2023-05-08T19:04:47.672Z,17.70
2023-05-08T19:07:15.492Z,17.70
2023-05-08T19:09:43.290Z,17.70
2023-05-08T19:12:11.116Z,17.70
2023-05-08T19:14:38.875Z,17.70
2023-05-08T19:17:06.579Z,17.70
2023-05-08T19:19:34.387Z,17.70
2023-05-08T19:22:03.432Z,17.70
2023-05-08T19:24:31.909Z,17.70
2023-05-08T19:26:59.843Z,17.70
2023-05-08T19:29:27.564Z,17.70
2023-05-08T19:31:56.422Z,17.70
2023-05-08T19:34:24.665Z,17.70
2023-05-08T19:36:52.593Z,17.70
2023-05-08T19:39:21.694Z,17.70
2023-05-08T19:41:49.476Z,17.70
2023-05-08T19:44:17.211Z,17.70
2023-05-08T19:46:44.899Z,17.70
2023-05-08T19:49:14.094Z,17.70
2023-05-08T19:51:41.795Z,17.70
2023-05-08T19:54:09.477Z,17.70
2023-05-08T19:56:38.577Z,17.70
2023-05-08T19:59:06.267Z,17.70
2023-05-08T20:01:34.367Z,17.70
2023-05-08T20:04:02.299Z,17.70
2023-05-08T20:06:30.430Z,17.60
2023-05-08T20:08:58.242Z,17.70
2023-05-08T20:11:26.067Z,17.60
2023-05-08T20:13:55.176Z,17.60
2023-05-08T20:16:22.986Z,17.60
2023-05-08T20:18:50.813Z,17.60
2023-05-08T20:21:18.537Z,17.60
2023-05-08T20:23:46.290Z,17.60
2023-05-08T20:26:14.098Z,17.60
2023-05-08T20:28:41.820Z,17.60
2023-05-08T20:31:10.920Z,17.60
2023-05-08T20:33:38.673Z,17.50
2023-05-08T20:36:06.497Z,17.50
2023-05-08T20:38:34.229Z,17.50
2023-05-08T20:41:01.955Z,17.50
2023-05-08T20:43:29.722Z,17.50
2023-05-08T20:45:57.474Z,17.50
2023-05-08T20:48:26.526Z,17.50
2023-05-08T20:50:54.276Z,17.40
2023-05-08T20:53:21.986Z,17.40
2023-05-08T20:55:49.686Z,17.40
2023-05-08T20:58:17.441Z,17.30
2023-05-08T21:00:45.168Z,17.30
2023-05-08T21:03:12.886Z,17.30
2023-05-08T21:05:41.951Z,17.30
2023-05-08T21:08:09.698Z,17.20
2023-05-08T21:10:37.511Z,17.20
2023-05-08T21:13:05.358Z,17.20
2023-05-08T21:15:35.008Z,17.20
2023-05-08T21:18:02.831Z,17.10
2023-05-08T21:20:30.645Z,17.10
2023-05-08T21:22:59.715Z,17.10
2023-05-08T21:25:27.469Z,17.10
2023-05-08T21:27:55.527Z,17.00
2023-05-08T21:30:23.405Z,17.00
2023-05-08T21:32:51.361Z,17.00
2023-05-08T21:35:19.213Z,17.00
2023-05-08T21:37:46.928Z,17.00
2023-05-08T21:40:15.982Z,17.00
2023-05-08T21:42:43.736Z,17.00
2023-05-08T21:45:12.370Z,17.00
2023-05-08T21:47:40.402Z,17.00
2023-05-08T21:50:08.850Z,17.00
2023-05-08T21:52:36.542Z,16.90
2023-05-08T21:55:08.375Z,16.90
2023-05-08T21:57:37.487Z,16.90
2023-05-08T22:00:05.907Z,16.80
2023-05-08T22:02:33.795Z,16.80
2023-05-08T22:05:01.636Z,16.70
2023-05-08T22:07:29.340Z,16.70
2023-05-08T22:09:57.125Z,16.70
2023-05-08T22:12:24.845Z,16.70
2023-05-08T22:14:53.900Z,16.70
2023-05-08T22:17:21.573Z,16.60
2023-05-08T22:19:49.313Z,16.60
2023-05-08T22:22:17.128Z,16.60
2023-05-08T22:24:44.808Z,16.50
2023-05-08T22:27:12.540Z,16.50
2023-05-08T22:29:40.297Z,16.50
2023-05-08T22:32:09.682Z,16.50
2023-05-08T22:34:37.571Z,16.50
2023-05-08T22:37:05.298Z,16.50
2023-05-08T22:39:33.050Z,16.40
2023-05-08T22:42:01.856Z,16.40
2023-05-08T22:44:29.661Z,16.30
2023-05-08T22:46:57.480Z,16.30
2023-05-08T22:49:27.192Z,16.30
2023-05-08T22:51:55.457Z,16.30
2023-05-08T22:54:23.173Z,16.30
2023-05-08T22:56:50.818Z,16.20
2023-05-08T22:59:18.603Z,16.20
2023-05-08T23:01:46.402Z,16.20
2023-05-08T23:04:14.168Z,16.20
2023-05-08T23:06:43.254Z,16.20
2023-05-08T23:09:11.041Z,16.10
2023-05-08T23:11:38.877Z,16.10
2023-05-08T23:14:06.632Z,16.10
2023-05-08T23:16:34.401Z,16.10
2023-05-08T23:19:02.173Z,16.00
2023-05-08T23:21:29.856Z,16.10
2023-05-08T23:23:58.952Z,16.00
2023-05-08T23:26:26.818Z,16.10
2023-05-08T23:28:54.715Z,16.10
2023-05-08T23:31:22.529Z,16.10
2023-05-08T23:33:50.331Z,16.10
2023-05-08T23:36:18.119Z,16.10
2023-05-08T23:38:45.830Z,16.10
2023-05-08T23:41:15.002Z,16.10
2023-05-08T23:43:42.754Z,16.10
2023-05-08T23:46:10.539Z,16.10
2023-05-08T23:48:38.251Z,16.10
2023-05-08T23:51:06.070Z,16.10
2023-05-08T23:53:33.757Z,16.10
2023-05-08T23:56:01.746Z,16.00
2023-05-08T23:58:30.914Z,16.00
